Главная страница
METAR-TAF:

METAR-TAF

Аэропорты :

Хальмстад, Швеция

широта: 56-41N, долгота: 012-50E, высота над уровнем моря: 30 м

Текущие метеонаблюдения

Эта сводка был подготовлена 32 минут назад, в 02:50 UTC
Ветер 13 Узел от западно-северо-западный
Температура 4°C
Влажность 93%
Давление 1025 hPa
Видимость 10 км и более

METAR: ESMT 240250Z AUTO 29013KT 9999 FEW015/// 04/03 Q1025

Время: 04:22 (03:22 UTC)

Прогноз

Эта сводка был подготовлена 16 часа и 14 минут назад, в 11:08 UTC
Прогноз действительный с 23-го 12 UTC до 23-го 16 UTC
Ветер 15 Узел от западно-северо-западный
Видимость 10 км и более
небольшая облачность на высоте 1200 фута

TAF: ESMT 231108Z 2312/2316 29015KT 9999 FEW012

Метеонаблюдения и прогнозы для более 4000 аэропортов (сводки METAR и TAF).

Имеющиеся станции представлены на карте желтыми и красными точками.

Чтобы увидеть название станции, наведите на нее мышь.

Затем щелкните, чтобы увидеть метеонаблюдения и метеопрогнозы.

Управление картой: чтобы увеличить масштаб, щелкните зеленые кнопки с черным крестиком; чтобы уменьшить масштаб, щелкните зеленую кнопку с тире; для просмотра соседних карт щелкайте зеленые стрелки.


METAR-TAF: